Alford, Florida
Current Conditions -  °F | °C
As of 2:00 AM on Sunday 23 Nov 2014 (Local Time) from KMAI Reporting Station
Light Rain Light Rain  
Wind Chill: 62°   Ceiling: 700
Heat Index: 62°   Visibility: 10mi
Dew Point: 62°   Wind: 8mph
Humidity: 100%   Direction: 90°E
Pressure: 29.96"   Gusts: NA
Location:  30.69°N, 85.39°W
Report Text: KMAI 230800Z AUTO 09007KT 10SM -RA BKN007 BKN013 OVC022 17/17 A2996 RMK AO2 P0000 T01670167 $
Loading
Personal Weather Stations






























Interactive Weather Map New forecast layout! Learn more

10-Day Weather Forecast

Advertisements
Track Severe Weather on mobile